createdAt,value
2023-04-06T00:02:26.898Z,5.35
2023-04-06T00:05:10.089Z,4.93
2023-04-06T00:07:53.755Z,4.18
2023-04-06T00:10:36.729Z,9.13
2023-04-06T00:13:21.075Z,10.63
2023-04-06T00:16:03.847Z,10.07
2023-04-06T00:18:46.953Z,6.95
2023-04-06T00:21:29.699Z,10.02
2023-04-06T00:24:12.409Z,6.30
2023-04-06T00:26:55.123Z,9.52
2023-04-06T00:29:39.691Z,5.78
2023-04-06T00:32:23.020Z,5.22
2023-04-06T00:35:06.096Z,4.80
2023-04-06T00:37:49.992Z,7.03
2023-04-06T00:40:33.771Z,6.35
2023-04-06T00:43:16.756Z,4.18
2023-04-06T00:46:02.189Z,4.68
2023-04-06T00:48:44.984Z,5.50
2023-04-06T00:51:27.672Z,4.35
2023-04-06T00:54:10.554Z,4.20
2023-04-06T00:56:53.380Z,4.53
2023-04-06T00:59:36.982Z,4.40
2023-04-06T01:02:25.336Z,4.28
2023-04-06T01:05:09.525Z,4.55
2023-04-06T01:08:03.024Z,4.80
2023-04-06T01:10:45.787Z,6.75
2023-04-06T01:13:40.285Z,3.40
2023-04-06T01:16:29.159Z,6.07
2023-04-06T01:19:24.648Z,5.30
2023-04-06T01:22:09.500Z,4.95
2023-04-06T01:25:02.625Z,6.30
2023-04-06T01:28:02.292Z,7.65
2023-04-06T01:31:05.676Z,5.45
2023-04-06T01:34:04.411Z,5.15
2023-04-06T01:36:47.119Z,5.00
2023-04-06T01:39:41.759Z,5.13
2023-04-06T01:42:27.117Z,5.63
2023-04-06T01:45:10.624Z,5.50
2023-04-06T01:47:54.058Z,5.57
2023-04-06T01:50:40.280Z,6.13
2023-04-06T01:53:24.366Z,6.78
2023-04-06T01:56:08.909Z,4.70
2023-04-06T01:59:00.852Z,5.30
2023-04-06T02:01:51.237Z,4.35
2023-04-06T02:04:34.331Z,5.60
2023-04-06T02:07:25.241Z,8.68
2023-04-06T02:10:13.276Z,3.78
2023-04-06T02:12:56.149Z,6.00
2023-04-06T02:15:43.727Z,5.78
2023-04-06T02:18:26.435Z,5.10
2023-04-06T02:21:09.077Z,4.55
2023-04-06T02:23:52.264Z,4.88
2023-04-06T02:26:35.023Z,5.85
2023-04-06T02:29:17.754Z,8.93
2023-04-06T02:32:01.977Z,4.30
2023-04-06T02:34:46.813Z,6.00
2023-04-06T02:37:30.035Z,4.80
2023-04-06T02:40:12.888Z,5.57
2023-04-06T02:42:55.649Z,4.85
2023-04-06T02:45:44.516Z,5.93
2023-04-06T02:48:29.342Z,5.03
2023-04-06T02:51:12.015Z,4.93
2023-04-06T02:53:56.380Z,4.65
2023-04-06T02:56:39.287Z,5.20
2023-04-06T02:59:22.738Z,4.18
2023-04-06T03:02:26.021Z,5.78
2023-04-06T03:05:14.090Z,4.10
2023-04-06T03:07:59.437Z,6.30
2023-04-06T03:10:52.396Z,4.95
2023-04-06T03:13:35.437Z,5.38
2023-04-06T03:16:18.259Z,6.30
2023-04-06T03:19:01.259Z,4.82
2023-04-06T03:21:46.668Z,5.25
2023-04-06T03:24:30.293Z,5.00
2023-04-06T03:27:12.951Z,5.72
2023-04-06T03:29:56.837Z,4.95
2023-04-06T03:32:46.683Z,6.20
2023-04-06T03:35:29.450Z,7.97
2023-04-06T03:38:14.942Z,5.50
2023-04-06T03:40:57.652Z,5.80
2023-04-06T03:43:42.974Z,6.72
2023-04-06T03:46:25.967Z,7.88
2023-04-06T03:49:11.421Z,5.78
2023-04-06T03:51:54.834Z,4.30
2023-04-06T03:54:38.925Z,4.80
2023-04-06T03:57:21.609Z,4.72
2023-04-06T04:00:04.504Z,6.00
2023-04-06T04:02:55.448Z,4.93
2023-04-06T04:05:38.197Z,5.60
2023-04-06T04:08:21.038Z,6.88
2023-04-06T04:11:05.175Z,4.88
2023-04-06T04:13:48.523Z,6.82
2023-04-06T04:16:31.388Z,6.57
2023-04-06T04:19:14.131Z,6.13
2023-04-06T04:21:56.883Z,5.25
2023-04-06T04:24:47.439Z,6.85
2023-04-06T04:27:32.418Z,6.50
2023-04-06T04:30:15.690Z,6.30
2023-04-06T04:32:58.734Z,7.28
2023-04-06T04:35:41.589Z,7.53
2023-04-06T04:38:26.246Z,7.47
2023-04-06T04:41:11.637Z,7.63
2023-04-06T04:43:58.931Z,8.73
2023-04-06T04:46:43.830Z,7.28
2023-04-06T04:49:27.960Z,4.53
2023-04-06T04:52:11.806Z,7.45
2023-04-06T04:55:11.703Z,5.97
2023-04-06T04:57:56.669Z,6.22
2023-04-06T05:00:50.864Z,6.55
2023-04-06T05:03:34.908Z,6.25
2023-04-06T05:06:21.589Z,6.13
2023-04-06T05:09:04.765Z,7.57
2023-04-06T05:11:47.650Z,6.43
2023-04-06T05:14:30.717Z,6.82
2023-04-06T05:17:15.959Z,7.63
2023-04-06T05:19:58.754Z,7.45
2023-04-06T05:22:43.298Z,7.32
2023-04-06T05:25:27.663Z,7.05
2023-04-06T05:28:15.207Z,10.05
2023-04-06T05:30:58.152Z,6.07
2023-04-06T05:33:44.084Z,7.07
2023-04-06T05:36:29.559Z,7.05
2023-04-06T05:39:13.382Z,8.38
2023-04-06T05:42:07.835Z,7.03
2023-04-06T05:45:04.532Z,8.30
2023-04-06T05:47:48.517Z,6.65
2023-04-06T05:50:51.854Z,8.43
2023-04-06T05:53:38.976Z,5.75
2023-04-06T05:56:21.811Z,7.25
2023-04-06T05:59:04.611Z,7.75
2023-04-06T06:01:48.034Z,9.13
2023-04-06T06:04:32.261Z,6.53
2023-04-06T06:07:16.652Z,6.75
2023-04-06T06:10:05.006Z,6.53
2023-04-06T06:12:51.934Z,5.63
2023-04-06T06:15:34.724Z,12.63
2023-04-06T06:18:18.427Z,9.43
2023-04-06T06:21:02.280Z,6.20
2023-04-06T06:23:48.297Z,8.15
2023-04-06T06:26:33.495Z,6.38
2023-04-06T06:29:16.734Z,8.07
2023-04-06T06:31:59.962Z,9.98
2023-04-06T06:34:43.243Z,6.18
2023-04-06T06:37:28.235Z,8.55
2023-04-06T06:40:17.030Z,6.65
2023-04-06T06:43:01.093Z,6.97
2023-04-06T06:46:04.150Z,8.20
2023-04-06T06:48:47.031Z,6.88
2023-04-06T06:51:29.853Z,8.23
2023-04-06T06:54:12.658Z,6.72
2023-04-06T06:56:56.868Z,7.22
2023-04-06T06:59:39.931Z,7.45
2023-04-06T07:02:22.993Z,8.90
2023-04-06T07:05:15.995Z,7.47
2023-04-06T07:08:07.095Z,7.05
2023-04-06T07:10:51.348Z,8.88
2023-04-06T07:13:36.279Z,11.93
2023-04-06T07:16:19.101Z,9.20
2023-04-06T07:19:01.890Z,7.28
2023-04-06T07:21:44.679Z,7.35
2023-04-06T07:24:27.482Z,10.10
2023-04-06T07:27:10.284Z,5.35
2023-04-06T07:29:54.517Z,5.72
2023-04-06T07:32:37.742Z,5.50
2023-04-06T07:35:20.980Z,5.22
2023-04-06T07:38:03.951Z,4.72
2023-04-06T07:40:47.654Z,5.13
2023-04-06T07:43:30.465Z,5.40
2023-04-06T07:46:14.746Z,4.97
2023-04-06T07:48:58.696Z,5.20
2023-04-06T07:51:41.758Z,5.97
2023-04-06T07:54:24.590Z,6.93
2023-04-06T07:57:07.286Z,6.05
2023-04-06T07:59:49.984Z,6.63
2023-04-06T08:02:34.862Z,5.28
2023-04-06T08:05:18.889Z,5.07
2023-04-06T08:08:01.613Z,6.30
2023-04-06T08:10:44.383Z,4.65
2023-04-06T08:13:27.109Z,5.72
2023-04-06T08:16:09.927Z,5.57
2023-04-06T08:18:54.061Z,7.95
2023-04-06T08:21:36.925Z,11.07
2023-04-06T08:24:19.649Z,4.30
2023-04-06T08:27:02.452Z,3.97
2023-04-06T08:29:45.141Z,4.80
2023-04-06T08:32:27.958Z,5.28
2023-04-06T08:35:12.172Z,4.53
2023-04-06T08:37:54.920Z,5.35
2023-04-06T08:40:40.586Z,3.83
2023-04-06T08:43:24.703Z,3.60
2023-04-06T08:46:07.701Z,3.95
2023-04-06T08:48:50.897Z,4.28
2023-04-06T08:51:34.996Z,6.50
2023-04-06T08:54:17.809Z,5.68
2023-04-06T08:57:01.235Z,3.03
2023-04-06T08:59:44.221Z,6.43
2023-04-06T09:02:27.242Z,4.55
2023-04-06T09:05:10.769Z,6.00
2023-04-06T09:07:54.864Z,5.55
2023-04-06T09:10:37.738Z,4.82
2023-04-06T09:13:20.546Z,3.22
2023-04-06T09:16:03.875Z,4.18
2023-04-06T09:18:46.952Z,4.85
2023-04-06T09:21:29.652Z,3.75
2023-04-06T09:24:13.694Z,5.55
2023-04-06T09:26:56.477Z,3.10
2023-04-06T09:29:39.181Z,3.92
2023-04-06T09:32:21.947Z,3.63
2023-04-06T09:35:08.349Z,3.72
2023-04-06T09:37:51.683Z,4.32
2023-04-06T09:40:35.857Z,4.10
2023-04-06T09:43:25.692Z,7.18
2023-04-06T09:46:08.448Z,4.63
2023-04-06T09:48:51.708Z,4.40
2023-04-06T09:51:39.826Z,3.83
2023-04-06T09:54:23.670Z,4.10
2023-04-06T09:57:10.400Z,3.45
2023-04-06T09:59:58.955Z,4.13
2023-04-06T10:02:46.911Z,4.07
2023-04-06T10:05:33.889Z,3.90
2023-04-06T10:08:17.416Z,5.15
2023-04-06T10:11:01.974Z,3.50
2023-04-06T10:13:48.111Z,4.85
2023-04-06T10:16:31.496Z,4.10
2023-04-06T10:19:15.577Z,4.10
2023-04-06T10:21:59.909Z,6.10
2023-04-06T10:24:42.596Z,5.85
2023-04-06T10:27:31.850Z,6.38
2023-04-06T10:30:17.545Z,6.82
2023-04-06T10:33:00.413Z,6.60
2023-04-06T10:35:43.292Z,4.47
2023-04-06T10:38:36.288Z,5.13
2023-04-06T10:41:21.560Z,5.07
2023-04-06T10:44:04.694Z,5.60
2023-04-06T10:46:56.669Z,5.07
2023-04-06T10:49:39.425Z,4.15
2023-04-06T10:52:22.170Z,5.30
2023-04-06T10:55:05.523Z,8.77
2023-04-06T10:57:48.418Z,4.70
2023-04-06T11:00:39.633Z,4.63
2023-04-06T11:03:31.362Z,5.88
2023-04-06T11:06:19.638Z,5.68
2023-04-06T11:09:02.365Z,6.63
2023-04-06T11:11:45.338Z,6.65
2023-04-06T11:14:28.483Z,5.30
2023-04-06T11:17:11.382Z,6.57
2023-04-06T11:19:55.599Z,7.05
2023-04-06T11:22:38.368Z,4.88
2023-04-06T11:25:21.234Z,6.43
2023-04-06T11:28:04.326Z,7.90
2023-04-06T11:30:47.514Z,6.72
2023-04-06T11:33:31.425Z,7.47
2023-04-06T11:36:16.589Z,7.85
2023-04-06T11:38:59.716Z,8.13
2023-04-06T11:41:42.759Z,9.80
2023-04-06T11:44:33.693Z,6.88
2023-04-06T11:47:16.537Z,6.65
2023-04-06T11:50:07.380Z,7.25
2023-04-06T11:52:59.635Z,8.15
2023-04-06T11:55:46.308Z,6.82
2023-04-06T11:58:29.035Z,9.40
2023-04-06T12:01:11.722Z,7.97
2023-04-06T12:03:54.765Z,8.13
2023-04-06T12:06:37.617Z,9.27
2023-04-06T12:09:22.012Z,9.93
2023-04-06T12:12:04.921Z,7.78
2023-04-06T12:14:47.782Z,7.50
2023-04-06T12:17:30.707Z,8.02
2023-04-06T12:20:25.358Z,10.32
2023-04-06T12:23:09.548Z,7.43
2023-04-06T12:25:53.938Z,9.05
2023-04-06T12:28:37.231Z,10.32
2023-04-06T12:31:20.506Z,8.88
2023-04-06T12:34:04.290Z,7.20
2023-04-06T12:36:47.173Z,8.07
2023-04-06T12:39:30.019Z,5.47
2023-04-06T12:42:14.859Z,5.57
2023-04-06T12:44:57.688Z,7.13
2023-04-06T12:47:40.538Z,7.43
2023-04-06T12:50:23.427Z,7.97
2023-04-06T12:53:06.313Z,6.45
2023-04-06T12:55:49.368Z,7.22
2023-04-06T12:58:34.457Z,6.40
2023-04-06T13:01:17.399Z,7.35
2023-04-06T13:04:00.333Z,6.38
2023-04-06T13:06:43.174Z,6.93
2023-04-06T13:09:26.083Z,6.20
2023-04-06T13:12:08.945Z,7.82
2023-04-06T13:14:53.627Z,7.35
2023-04-06T13:17:36.790Z,6.28
2023-04-06T13:20:19.827Z,6.90
2023-04-06T13:23:02.578Z,9.13
2023-04-06T13:25:45.520Z,7.07
2023-04-06T13:28:28.604Z,8.57
2023-04-06T13:31:12.841Z,6.35
2023-04-06T13:33:55.883Z,6.38
2023-04-06T13:36:39.728Z,7.30
2023-04-06T13:39:22.638Z,5.63
2023-04-06T13:42:05.583Z,8.23
2023-04-06T13:44:49.098Z,7.97
2023-04-06T13:47:34.018Z,7.05
2023-04-06T13:50:16.898Z,9.27
2023-04-06T13:52:59.621Z,7.95
2023-04-06T13:55:42.296Z,7.90
2023-04-06T13:58:25.136Z,8.35
2023-04-06T14:01:10.618Z,8.38
2023-04-06T14:03:55.398Z,6.45
2023-04-06T14:06:38.923Z,7.32
2023-04-06T14:09:21.715Z,7.57
2023-04-06T14:12:04.434Z,6.60
2023-04-06T14:14:47.062Z,7.53
2023-04-06T14:17:29.727Z,6.72
2023-04-06T14:20:15.736Z,11.05
2023-04-06T14:22:58.615Z,8.45
2023-04-06T14:25:41.401Z,6.75
2023-04-06T14:28:24.694Z,8.10
2023-04-06T14:31:12.559Z,8.02
2023-04-06T14:33:55.633Z,7.70
2023-04-06T14:36:39.619Z,9.20
2023-04-06T14:39:22.375Z,8.40
2023-04-06T14:42:05.060Z,7.43
2023-04-06T14:44:47.665Z,7.03
2023-04-06T14:47:30.267Z,6.88
2023-04-06T14:50:12.981Z,6.80
2023-04-06T14:52:56.977Z,8.05
2023-04-06T14:55:41.365Z,7.50
2023-04-06T14:58:24.599Z,7.03
2023-04-06T15:01:07.570Z,11.13
2023-04-06T15:03:50.606Z,9.02
2023-04-06T15:06:33.663Z,7.82
2023-04-06T15:09:17.702Z,9.48
2023-04-06T15:12:01.354Z,7.20
2023-04-06T15:14:43.955Z,6.85
2023-04-06T15:17:27.408Z,6.82
2023-04-06T15:20:10.511Z,7.65
2023-04-06T15:22:53.102Z,6.95
2023-04-06T15:25:37.102Z,9.20
2023-04-06T15:28:19.770Z,7.60
2023-04-06T15:31:06.799Z,7.15
2023-04-06T15:33:51.611Z,8.88
2023-04-06T15:36:35.043Z,6.70
2023-04-06T15:39:17.825Z,7.82
2023-04-06T15:42:01.913Z,6.40
2023-04-06T15:44:44.669Z,7.07
2023-04-06T15:47:27.406Z,7.63
2023-04-06T15:50:10.597Z,8.40
2023-04-06T15:52:53.274Z,8.15
2023-04-06T15:55:35.923Z,6.43
2023-04-06T15:58:19.898Z,6.45
2023-04-06T16:01:02.586Z,7.40
2023-04-06T16:03:46.047Z,7.82
2023-04-06T16:06:28.729Z,7.95
2023-04-06T16:09:11.379Z,9.20
2023-04-06T16:11:54.143Z,8.18
2023-04-06T16:14:38.205Z,7.35
2023-04-06T16:17:21.521Z,5.97
2023-04-06T16:20:04.652Z,6.82
2023-04-06T16:22:47.750Z,6.60
2023-04-06T16:25:30.778Z,7.25
2023-04-06T16:28:13.542Z,6.97
2023-04-06T16:30:57.970Z,6.97
2023-04-06T16:33:42.092Z,6.65
2023-04-06T16:36:24.932Z,6.72
2023-04-06T16:39:07.650Z,8.27
2023-04-06T16:41:50.212Z,7.80
2023-04-06T16:44:32.840Z,7.55
2023-04-06T16:47:17.486Z,8.57
2023-04-06T16:53:02.861Z,8.20
2023-04-06T16:55:45.635Z,9.18
2023-04-06T16:58:28.210Z,7.55
2023-04-06T17:01:18.452Z,7.15
2023-04-06T17:04:02.893Z,7.80
2023-04-06T17:06:45.798Z,8.27
2023-04-06T17:09:28.421Z,7.72
2023-04-06T17:12:11.147Z,6.80
2023-04-06T17:14:53.775Z,7.20
2023-04-06T17:17:37.635Z,7.00
2023-04-06T17:20:21.984Z,6.82
2023-04-06T17:23:05.037Z,8.05
2023-04-06T17:25:47.622Z,9.43
2023-04-06T17:28:32.888Z,8.98
2023-04-06T17:31:15.833Z,10.82
2023-04-06T17:34:00.061Z,7.75
2023-04-06T17:36:44.125Z,6.97
2023-04-06T17:39:26.814Z,8.23
2023-04-06T17:42:09.606Z,8.68
2023-04-06T17:44:53.236Z,7.78
2023-04-06T17:47:36.551Z,7.30
2023-04-06T17:50:19.487Z,6.97
2023-04-06T17:53:03.602Z,6.47
2023-04-06T17:55:46.609Z,6.90
2023-04-06T17:58:29.259Z,7.72
2023-04-06T18:01:12.155Z,7.00
2023-04-06T18:03:54.891Z,8.38
2023-04-06T18:06:37.871Z,7.30
2023-04-06T18:09:21.907Z,7.47
2023-04-06T18:12:04.676Z,8.48
2023-04-06T18:14:47.425Z,8.32
2023-04-06T18:17:30.490Z,8.45
2023-04-06T18:20:15.027Z,7.47
2023-04-06T18:22:58.551Z,9.93
2023-04-06T18:25:42.692Z,13.20
2023-04-06T18:28:25.453Z,8.77
2023-04-06T18:31:08.220Z,9.23
2023-04-06T18:33:52.924Z,7.85
2023-04-06T18:36:37.067Z,8.40
2023-04-06T18:39:19.878Z,9.52
2023-04-06T18:42:04.129Z,8.25
2023-04-06T18:44:46.911Z,8.13
2023-04-06T18:47:29.639Z,7.97
2023-04-06T18:50:12.458Z,7.00
2023-04-06T18:52:55.146Z,11.13
2023-04-06T18:55:38.366Z,6.22
2023-04-06T18:58:22.419Z,7.32
2023-04-06T19:01:05.175Z,5.88
2023-04-06T19:03:48.103Z,8.95
2023-04-06T19:06:31.177Z,6.63
2023-04-06T19:09:13.890Z,7.40
2023-04-06T19:11:57.536Z,7.55
2023-04-06T19:14:41.552Z,7.57
2023-04-06T19:17:24.300Z,8.88
2023-04-06T19:20:07.527Z,8.52
2023-04-06T19:22:50.847Z,8.85
2023-04-06T19:25:33.456Z,10.95
2023-04-06T19:28:16.435Z,10.80
2023-04-06T19:31:01.509Z,10.00
2023-04-06T19:33:44.879Z,9.55
2023-04-06T19:36:28.295Z,10.23
2023-04-06T19:39:11.129Z,9.45
2023-04-06T19:41:53.978Z,12.80
2023-04-06T19:44:36.951Z,13.65
2023-04-06T19:47:20.947Z,12.00
2023-04-06T19:50:03.830Z,14.30
2023-04-06T19:52:46.595Z,14.07
2023-04-06T19:55:29.356Z,15.60
2023-04-06T19:58:11.988Z,12.70
2023-04-06T20:00:54.681Z,13.65
2023-04-06T20:03:38.957Z,12.98
2023-04-06T20:06:21.761Z,15.10
2023-04-06T20:09:04.523Z,13.55
2023-04-06T20:11:47.426Z,12.70
2023-04-06T20:14:30.187Z,13.10
2023-04-06T20:17:12.897Z,12.63
2023-04-06T20:19:56.861Z,12.20
2023-04-06T20:22:39.542Z,11.73
2023-04-06T20:25:22.476Z,10.90
2023-04-06T20:28:05.265Z,12.25
2023-04-06T20:30:51.834Z,10.55
2023-04-06T20:33:35.309Z,10.70
2023-04-06T20:36:21.611Z,14.05
2023-04-06T20:39:05.007Z,11.30
2023-04-06T20:41:47.622Z,13.25
2023-04-06T20:44:31.174Z,12.18
2023-04-06T20:47:13.773Z,11.02
2023-04-06T20:49:56.585Z,13.48
2023-04-06T20:52:40.638Z,16.65
2023-04-06T20:55:23.339Z,13.13
2023-04-06T20:58:06.021Z,12.25
2023-04-06T21:00:49.684Z,13.57
2023-04-06T21:03:32.584Z,11.65
2023-04-06T21:06:15.744Z,11.13
2023-04-06T21:09:00.039Z,14.68
2023-04-06T21:11:42.830Z,15.18
2023-04-06T21:14:26.292Z,11.88
2023-04-06T21:17:09.290Z,9.68
2023-04-06T21:19:52.030Z,11.63
2023-04-06T21:22:34.709Z,13.00
2023-04-06T21:25:18.938Z,11.68
2023-04-06T21:28:01.653Z,10.55
2023-04-06T21:30:44.417Z,11.30
2023-04-06T21:33:27.185Z,12.23
2023-04-06T21:36:10.089Z,11.20
2023-04-06T21:38:52.803Z,12.10
2023-04-06T21:41:36.956Z,11.38
2023-04-06T21:44:19.766Z,13.90
2023-04-06T21:47:02.662Z,10.70
2023-04-06T21:49:45.493Z,11.60
2023-04-06T21:52:28.205Z,12.27
2023-04-06T21:55:11.429Z,12.05
2023-04-06T21:57:55.579Z,10.20
2023-04-06T22:00:38.342Z,11.13
2023-04-06T22:03:21.354Z,10.40
2023-04-06T22:06:04.357Z,11.27
2023-04-06T22:08:48.067Z,9.75
2023-04-06T22:11:30.884Z,10.30
2023-04-06T22:14:14.941Z,10.05
2023-04-06T22:16:57.628Z,12.95
2023-04-06T22:19:40.301Z,10.80
2023-04-06T22:22:23.064Z,10.65
2023-04-06T22:25:06.079Z,9.45
2023-04-06T22:27:48.794Z,11.65
2023-04-06T22:30:32.846Z,8.93
2023-04-06T22:33:15.718Z,8.05
2023-04-06T22:35:58.446Z,8.90
2023-04-06T22:38:41.189Z,11.55
2023-04-06T22:41:23.805Z,9.23
2023-04-06T22:44:06.501Z,12.02
2023-04-06T22:46:50.537Z,8.90
2023-04-06T22:49:33.249Z,8.95
2023-04-06T22:52:16.072Z,9.35
2023-04-06T22:54:58.742Z,11.23
2023-04-06T22:57:41.564Z,10.00
2023-04-06T23:00:24.224Z,9.32
2023-04-06T23:03:08.364Z,9.00
2023-04-06T23:05:51.187Z,9.25
2023-04-06T23:08:33.841Z,11.32
2023-04-06T23:11:16.515Z,9.25
2023-04-06T23:13:59.141Z,8.45
2023-04-06T23:16:41.931Z,9.32
2023-04-06T23:19:26.222Z,10.88
2023-04-06T23:22:08.868Z,10.38
2023-04-06T23:24:51.503Z,9.10
2023-04-06T23:27:34.113Z,9.63
2023-04-06T23:30:16.744Z,9.13
2023-04-06T23:32:59.495Z,9.52
2023-04-06T23:35:43.443Z,10.00
2023-04-06T23:38:26.593Z,10.98
2023-04-06T23:41:09.205Z,9.95
2023-04-06T23:43:52.413Z,10.05
2023-04-06T23:46:35.057Z,9.48
2023-04-06T23:49:17.841Z,8.95
2023-04-06T23:52:01.810Z,8.77
2023-04-06T23:54:44.458Z,10.25
2023-04-06T23:57:27.156Z,9.85
